Time;durP1;ratioP1;P1;durP2;ratioP2;P2;SDS_P1;SDS_P2;PMS_P1;PMS_P2;Temp;Humidity;BMP_temperature;BMP_pressure;BME280_temperature;BME280_humidity;BME280_pressure;Samples;Min_cycle;Max_cycle;Signal;HPM_P1;HPM_P2
2023/12/07 00:01:11;;;;;;;16.10;8.17;;;4.90;99.90;;;;;;5085665;28;20032;-91
2023/12/07 00:03:37;;;;;;;18.07;8.13;;;4.90;99.90;;;;;;5084067;28;20812;-90
2023/12/07 00:06:03;;;;;;;15.40;8.10;;;4.80;99.90;;;;;;5084842;28;20090;-90
2023/12/07 00:08:28;;;;;;;16.33;7.67;;;4.80;99.90;;;;;;5085875;28;20074;-91
2023/12/07 00:10:54;;;;;;;17.37;8.60;;;4.80;99.90;;;;;;5083833;28;20020;-92
2023/12/07 00:13:20;;;;;;;20.17;8.90;;;4.80;99.90;;;;;;5084714;28;20111;-90
2023/12/07 00:15:45;;;;;;;14.73;7.43;;;4.70;99.90;;;;;;5086409;28;20457;-90
2023/12/07 00:18:11;;;;;;;13.63;7.30;;;4.70;99.90;;;;;;5084135;28;20021;-90
2023/12/07 00:20:37;;;;;;;19.03;8.10;;;4.70;99.90;;;;;;5084320;28;20032;-91
2023/12/07 00:23:03;;;;;;;16.00;7.67;;;4.70;99.90;;;;;;5086512;28;20024;-91
2023/12/07 00:25:31;;;;;;;16.87;7.27;;;4.70;99.90;;;;;;5085284;28;20025;-91
2023/12/07 00:27:56;;;;;;;17.93;7.70;;;4.60;99.90;;;;;;5085145;28;20103;-89
2023/12/07 00:30:22;;;;;;;12.43;7.60;;;4.60;99.90;;;;;;5081371;28;20531;-90
2023/12/07 00:32:47;;;;;;;14.43;7.03;;;4.60;99.90;;;;;;5081312;28;20028;-90
2023/12/07 00:35:14;;;;;;;13.53;6.70;;;4.60;99.90;;;;;;5082015;28;20033;-89
2023/12/07 00:37:40;;;;;;;16.40;7.20;;;4.60;99.90;;;;;;5081342;28;20040;-89
2023/12/07 00:40:07;;;;;;;15.27;7.67;;;4.60;99.90;;;;;;5084568;28;20048;-89
2023/12/07 00:42:34;;;;;;;13.27;7.10;;;4.60;99.90;;;;;;5085682;28;20020;-90
2023/12/07 00:45:00;;;;;;;11.37;6.63;;;4.50;99.90;;;;;;5085201;28;20031;-89
2023/12/07 00:47:25;;;;;;;13.37;7.07;;;4.60;99.90;;;;;;5083263;28;20119;-88
2023/12/07 00:49:51;;;;;;;13.13;6.73;;;4.60;99.90;;;;;;5085052;28;20054;-88
2023/12/07 00:52:16;;;;;;;13.97;6.90;;;4.50;99.90;;;;;;5085155;28;20055;-88
2023/12/07 00:54:42;;;;;;;16.13;7.20;;;4.50;99.90;;;;;;5084500;28;20044;-87
2023/12/07 00:57:08;;;;;;;15.27;7.03;;;4.50;99.90;;;;;;5085333;28;20480;-87
2023/12/07 00:59:33;;;;;;;12.37;6.70;;;4.50;99.90;;;;;;5084092;28;20074;-88
2023/12/07 01:02:03;;;;;;;10.73;6.40;;;4.50;99.90;;;;;;5085249;28;20388;-88
2023/12/07 01:04:29;;;;;;;16.00;7.17;;;4.50;99.90;;;;;;5086321;28;20024;-88
2023/12/07 01:06:55;;;;;;;12.27;6.50;;;4.50;99.90;;;;;;5084152;28;20028;-88
2023/12/07 01:09:21;;;;;;;13.17;6.47;;;4.50;99.90;;;;;;5085642;28;20036;-89
2023/12/07 01:11:47;;;;;;;12.30;6.73;;;4.50;99.90;;;;;;5082912;28;20047;-89
2023/12/07 01:14:13;;;;;;;15.63;6.33;;;4.50;99.90;;;;;;5084043;28;20061;-90
2023/12/07 01:16:38;;;;;;;12.20;6.03;;;4.50;99.90;;;;;;5083958;28;20021;-89
2023/12/07 01:19:04;;;;;;;14.43;6.37;;;4.60;99.90;;;;;;5084023;28;20032;-91
2023/12/07 01:21:30;;;;;;;14.90;6.63;;;4.60;99.90;;;;;;5083742;28;20111;-89
2023/12/07 01:23:56;;;;;;;12.83;6.53;;;4.60;99.90;;;;;;5086212;28;20089;-90
2023/12/07 01:26:22;;;;;;;11.17;6.40;;;4.60;99.90;;;;;;5084138;28;20033;-89
2023/12/07 01:28:47;;;;;;;12.53;5.80;;;4.50;99.90;;;;;;5086375;28;20024;-89
2023/12/07 01:31:13;;;;;;;13.53;6.47;;;4.40;99.90;;;;;;5083666;28;20065;-89
2023/12/07 01:33:38;;;;;;;11.73;6.20;;;4.40;99.90;;;;;;5083554;28;20103;-91
2023/12/07 01:36:04;;;;;;;15.43;6.57;;;4.30;99.90;;;;;;5083537;28;20028;-89
2023/12/07 01:38:30;;;;;;;12.60;6.10;;;4.40;99.90;;;;;;5083365;28;20035;-90
2023/12/07 01:40:55;;;;;;;11.27;5.70;;;4.30;99.90;;;;;;5084312;28;20048;-91
2023/12/07 01:43:22;;;;;;;16.20;6.77;;;4.30;99.90;;;;;;5083433;28;20119;-89
2023/12/07 01:45:53;;;;;;;12.77;6.70;;;4.30;99.90;;;;;;5085791;28;20024;-90
2023/12/07 01:48:20;;;;;;;14.07;6.67;;;4.30;99.90;;;;;;5084796;28;20028;-90
2023/12/07 01:50:46;;;;;;;14.90;6.27;;;4.30;99.90;;;;;;5084918;28;20051;-90
2023/12/07 01:53:13;;;;;;;11.33;5.77;;;4.30;99.90;;;;;;5085092;28;20125;-90
2023/12/07 01:55:39;;;;;;;13.53;6.33;;;4.30;99.90;;;;;;5082463;28;20032;-91
2023/12/07 01:58:05;;;;;;;12.20;6.47;;;4.20;99.90;;;;;;5083796;28;20153;-92
2023/12/07 02:00:31;;;;;;;12.13;6.07;;;4.20;99.90;;;;;;5082317;28;20036;-91
2023/12/07 02:02:57;;;;;;;16.80;6.73;;;4.20;99.90;;;;;;5082363;28;20035;-91
2023/12/07 02:05:24;;;;;;;14.30;6.43;;;4.10;99.90;;;;;;5083752;28;20038;-92
2023/12/07 02:07:49;;;;;;;12.60;6.50;;;4.10;99.90;;;;;;5082160;28;20090;-92
2023/12/07 02:10:15;;;;;;;12.57;6.33;;;4.10;99.90;;;;;;5081571;28;20029;-92
2023/12/07 02:12:41;;;;;;;16.73;6.97;;;4.10;99.90;;;;;;5083181;28;20028;-93
2023/12/07 02:15:08;;;;;;;13.87;6.30;;;4.10;99.90;;;;;;5084079;28;20039;-92
2023/12/07 02:17:38;;;;;;;14.93;7.20;;;4.10;99.90;;;;;;5082714;28;20051;-91
2023/12/07 02:20:26;;;;;;;18.90;7.83;;;4.10;99.90;;;;;;5083516;28;20020;-91
2023/12/07 02:22:54;;;;;;;14.13;6.67;;;4.10;99.90;;;;;;5108711;28;20028;-89
2023/12/07 02:25:26;;;;;;;13.90;6.37;;;4.00;99.90;;;;;;5108416;28;20029;-89
2023/12/07 02:27:51;;;;;;;17.35;6.97;;;4.00;99.90;;;;;;5108456;28;20085;-90
2023/12/07 02:30:17;;;;;;;13.50;7.20;;;3.90;99.90;;;;;;5083040;28;20066;-90
2023/12/07 02:32:44;;;;;;;16.63;7.63;;;3.90;99.90;;;;;;5082676;28;20453;-89
2023/12/07 02:35:14;;;;;;;19.00;8.50;;;4.00;99.90;;;;;;5083359;28;20105;-89
2023/12/07 02:37:45;;;;;;;16.20;7.70;;;4.10;99.90;;;;;;5082670;28;20024;-90
2023/12/07 02:40:14;;;;;;;16.20;7.65;;;4.10;99.90;;;;;;5084222;28;20482;-89
2023/12/07 02:42:42;;;;;;;15.93;7.63;;;4.10;99.90;;;;;;5082539;28;20024;-88
2023/12/07 02:45:10;;;;;;;17.30;8.07;;;4.10;99.90;;;;;;5082906;28;20028;-90
2023/12/07 02:47:37;;;;;;;16.27;7.40;;;4.00;99.90;;;;;;5081995;28;20072;-91
2023/12/07 02:50:05;;;;;;;18.50;7.67;;;4.00;99.90;;;;;;5082665;28;20047;-90
2023/12/07 02:52:31;;;;;;;16.37;7.80;;;4.00;99.90;;;;;;5082339;28;20021;-91
2023/12/07 02:54:56;;;;;;;18.90;8.77;;;4.00;99.90;;;;;;5083173;28;20043;-91
2023/12/07 02:57:22;;;;;;;14.80;7.87;;;4.00;99.90;;;;;;5084156;28;20078;-91
2023/12/07 02:59:48;;;;;;;14.70;7.53;;;4.00;99.90;;;;;;5081944;28;20081;-90
2023/12/07 03:02:13;;;;;;;15.93;7.57;;;4.00;99.90;;;;;;5081623;28;20028;-90
2023/12/07 03:04:39;;;;;;;15.13;8.00;;;3.90;99.90;;;;;;5081857;28;20028;-91
2023/12/07 03:07:04;;;;;;;15.40;8.10;;;3.90;99.90;;;;;;5082202;28;20032;-91
2023/12/07 03:09:30;;;;;;;12.20;7.40;;;3.80;99.90;;;;;;5083111;28;20031;-90
2023/12/07 03:11:55;;;;;;;14.87;7.43;;;3.80;99.90;;;;;;5082351;28;20028;-91
2023/12/07 03:14:21;;;;;;;21.03;7.53;;;3.80;99.90;;;;;;5081757;28;20033;-91
2023/12/07 03:16:47;;;;;;;14.33;7.73;;;3.70;99.90;;;;;;5081239;28;20032;-91
2023/12/07 03:19:12;;;;;;;16.87;8.50;;;3.70;99.90;;;;;;5083277;28;20064;-90
2023/12/07 03:21:42;;;;;;;15.93;7.43;;;3.70;99.90;;;;;;5081385;28;20502;-91
2023/12/07 03:24:09;;;;;;;18.67;7.53;;;3.60;99.90;;;;;;5082669;28;20024;-91
2023/12/07 03:26:35;;;;;;;15.90;8.10;;;3.60;99.90;;;;;;5080331;28;20082;-91
2023/12/07 03:29:01;;;;;;;16.53;7.83;;;3.60;99.90;;;;;;5081423;28;20025;-91
2023/12/07 03:31:27;;;;;;;16.67;7.63;;;3.60;99.90;;;;;;5082974;28;20032;-91
2023/12/07 03:33:53;;;;;;;19.10;7.97;;;3.60;99.90;;;;;;5082277;28;20029;-91
2023/12/07 03:36:19;;;;;;;19.63;9.90;;;3.60;99.90;;;;;;5081112;28;20060;-90
2023/12/07 03:38:45;;;;;;;23.43;9.50;;;3.50;99.90;;;;;;5081042;28;20062;-89
2023/12/07 03:41:10;;;;;;;16.30;8.43;;;3.50;99.90;;;;;;5083791;28;20079;-90
2023/12/07 03:43:36;;;;;;;14.63;7.87;;;3.40;99.90;;;;;;5082670;28;20025;-90
2023/12/07 03:46:06;;;;;;;15.13;7.90;;;3.50;99.90;;;;;;5081838;28;20031;-91
2023/12/07 03:48:32;;;;;;;16.17;6.77;;;3.50;99.90;;;;;;5107767;28;20032;-92
2023/12/07 03:50:57;;;;;;;18.13;8.57;;;3.40;99.90;;;;;;5081578;28;20506;-91
2023/12/07 03:53:23;;;;;;;14.90;8.30;;;3.40;99.90;;;;;;5081440;28;20032;-90
2023/12/07 03:55:49;;;;;;;16.93;8.50;;;3.40;99.90;;;;;;5081703;28;20027;-91
2023/12/07 03:58:14;;;;;;;17.37;8.70;;;3.40;99.90;;;;;;5081268;28;20031;-91
2023/12/07 04:00:40;;;;;;;19.63;8.77;;;3.40;99.90;;;;;;5080594;28;20021;-90
2023/12/07 04:03:06;;;;;;;18.83;8.50;;;3.40;99.90;;;;;;5080806;28;20032;-90
2023/12/07 04:05:31;;;;;;;17.57;8.30;;;3.40;99.90;;;;;;5081617;28;20031;-90
2023/12/07 04:07:57;;;;;;;16.47;7.73;;;3.40;99.90;;;;;;5081191;28;20040;-90
2023/12/07 04:10:23;;;;;;;15.50;7.30;;;3.40;99.90;;;;;;5105676;28;20028;-90
2023/12/07 04:12:49;;;;;;;20.67;8.50;;;3.40;99.90;;;;;;5082791;28;20048;-90
2023/12/07 04:15:15;;;;;;;16.90;7.50;;;3.40;99.90;;;;;;5083412;28;20074;-90
2023/12/07 04:17:42;;;;;;;24.57;9.77;;;3.30;99.90;;;;;;5085824;28;20377;-93
2023/12/07 04:20:09;;;;;;;22.17;9.17;;;3.30;99.90;;;;;;5085770;28;20054;-92
2023/12/07 04:22:34;;;;;;;14.03;7.87;;;3.30;99.90;;;;;;5085966;28;20020;-93
2023/12/07 04:25:00;;;;;;;20.07;8.77;;;3.30;99.90;;;;;;5085288;28;20035;-93
2023/12/07 04:27:26;;;;;;;15.93;8.07;;;3.30;99.90;;;;;;5084285;28;20082;-93
2023/12/07 04:29:51;;;;;;;14.87;7.43;;;3.30;99.90;;;;;;5084452;28;20055;-93
2023/12/07 04:32:17;;;;;;;18.30;8.00;;;3.30;99.90;;;;;;5084901;28;20031;-92
2023/12/07 04:34:42;;;;;;;19.97;8.40;;;3.20;99.90;;;;;;5084189;28;20470;-91
2023/12/07 04:37:08;;;;;;;17.23;7.60;;;3.20;99.90;;;;;;5083791;28;20028;-91
2023/12/07 04:39:35;;;;;;;17.27;8.43;;;3.20;99.90;;;;;;5085213;28;20049;-93
2023/12/07 04:42:01;;;;;;;15.83;7.73;;;3.10;99.90;;;;;;5085826;28;20033;-91
2023/12/07 04:44:26;;;;;;;17.47;7.93;;;3.10;99.90;;;;;;5085198;28;20139;-91
2023/12/07 04:46:52;;;;;;;15.83;8.23;;;3.10;99.90;;;;;;5083902;28;20043;-91
2023/12/07 04:49:18;;;;;;;15.87;8.23;;;3.10;99.90;;;;;;5085778;28;20038;-91
2023/12/07 04:51:46;;;;;;;18.30;8.63;;;3.10;99.90;;;;;;5085620;28;20067;-91
2023/12/07 04:54:14;;;;;;;18.27;7.87;;;3.10;99.90;;;;;;5083827;28;20082;-91
2023/12/07 04:56:40;;;;;;;22.43;7.67;;;3.00;99.90;;;;;;5083650;28;20043;-92
2023/12/07 04:59:06;;;;;;;15.90;7.47;;;2.90;99.90;;;;;;5086579;28;20035;-93
2023/12/07 05:01:36;;;;;;;13.40;7.30;;;2.90;99.90;;;;;;5083910;28;20032;-93
2023/12/07 05:04:03;;;;;;;15.03;7.57;;;2.80;99.90;;;;;;5084867;28;20473;-93
2023/12/07 05:06:30;;;;;;;15.03;7.37;;;2.60;99.90;;;;;;5085265;28;20028;-92
2023/12/07 05:09:06;;;;;;;;;;;;;;;;;;;;;
2023/12/07 05:11:32;;;;;;;16.73;7.57;;;2.50;99.90;;;;;;5087219;28;20050;-93
2023/12/07 05:13:57;;;;;;;13.27;6.87;;;2.50;99.90;;;;;;5083087;28;20553;-92
2023/12/07 05:16:23;;;;;;;18.67;7.20;;;2.50;99.90;;;;;;5084614;28;20085;-93
2023/12/07 05:18:48;;;;;;;13.53;6.20;;;2.40;99.90;;;;;;5083155;28;20016;-93
2023/12/07 05:21:14;;;;;;;12.20;6.53;;;2.30;99.90;;;;;;5084669;28;20025;-93
2023/12/07 05:23:40;;;;;;;13.00;6.67;;;2.10;99.90;;;;;;5083149;28;20020;-93
2023/12/07 05:26:08;;;;;;;13.40;6.27;;;2.10;99.90;;;;;;5083260;28;20058;-93
2023/12/07 05:28:33;;;;;;;14.77;6.77;;;2.00;99.90;;;;;;5084497;28;20436;-92
2023/12/07 05:30:59;;;;;;;12.90;6.40;;;2.00;99.90;;;;;;5084705;28;20028;-90
2023/12/07 05:33:25;;;;;;;13.33;6.80;;;2.10;99.90;;;;;;5084994;28;20035;-91
2023/12/07 05:35:50;;;;;;;13.00;6.67;;;2.00;99.90;;;;;;5084450;28;20389;-88
2023/12/07 05:38:16;;;;;;;13.47;6.90;;;2.00;99.90;;;;;;5083455;28;20036;-88
2023/12/07 05:40:42;;;;;;;10.63;6.13;;;2.00;99.90;;;;;;5084189;28;20044;-88
2023/12/07 05:43:08;;;;;;;14.50;7.03;;;1.90;99.90;;;;;;5083298;28;20039;-88
2023/12/07 05:45:33;;;;;;;11.50;6.33;;;1.80;99.90;;;;;;5083445;28;20035;-90
2023/12/07 05:47:59;;;;;;;15.63;6.73;;;1.60;99.90;;;;;;5083342;28;20028;-88
2023/12/07 05:50:24;;;;;;;14.87;7.33;;;1.60;99.90;;;;;;5083701;28;20024;-91
2023/12/07 05:52:50;;;;;;;13.37;7.30;;;1.60;99.90;;;;;;5082624;28;20023;-91
2023/12/07 05:55:16;;;;;;;15.70;7.17;;;1.60;99.90;;;;;;5084864;28;20073;-90
2023/12/07 05:57:41;;;;;;;13.93;6.73;;;1.60;99.90;;;;;;5083327;28;20020;-90
2023/12/07 06:00:09;;;;;;;11.30;6.20;;;1.50;99.90;;;;;;5082418;28;20032;-89
2023/12/07 06:02:35;;;;;;;13.93;6.63;;;1.40;99.90;;;;;;5083878;28;20036;-91
2023/12/07 06:05:03;;;;;;;15.87;6.30;;;1.40;99.90;;;;;;5083370;28;20032;-86
2023/12/07 06:07:29;;;;;;;16.80;6.37;;;1.40;99.90;;;;;;5081578;28;20112;-85
2023/12/07 06:09:55;;;;;;;12.70;6.93;;;1.40;99.90;;;;;;5083174;28;20452;-85
2023/12/07 06:12:21;;;;;;;14.00;6.40;;;1.40;99.90;;;;;;5082760;28;20024;-89
2023/12/07 06:14:50;;;;;;;12.00;6.20;;;1.40;99.90;;;;;;5081811;28;20425;-90
2023/12/07 06:17:16;;;;;;;11.67;6.03;;;1.40;99.90;;;;;;5083241;28;20028;-86
2023/12/07 06:19:42;;;;;;;13.00;6.50;;;1.30;99.90;;;;;;5082186;28;20031;-91
2023/12/07 06:22:08;;;;;;;14.13;6.17;;;1.20;99.90;;;;;;5084726;28;20041;-91
2023/12/07 06:24:33;;;;;;;14.83;6.30;;;1.20;99.90;;;;;;5082279;28;20043;-91
2023/12/07 06:27:01;;;;;;;13.43;6.13;;;1.10;99.90;;;;;;5081370;28;20024;-91
2023/12/07 06:29:27;;;;;;;11.63;6.37;;;1.10;99.90;;;;;;5081675;28;20413;-91
2023/12/07 06:31:52;;;;;;;14.40;6.47;;;1.10;99.90;;;;;;5080717;28;20171;-91
2023/12/07 06:34:19;;;;;;;12.67;6.30;;;1.10;99.90;;;;;;5084975;28;20028;-89
2023/12/07 06:36:45;;;;;;;15.80;6.90;;;1.10;99.90;;;;;;5086247;28;20024;-92
2023/12/07 06:39:10;;;;;;;14.77;6.53;;;1.10;99.90;;;;;;5093598;28;20055;-80
2023/12/07 06:41:36;;;;;;;14.60;6.63;;;1.00;99.90;;;;;;5085282;28;20392;-92
2023/12/07 06:44:02;;;;;;;13.33;6.67;;;1.10;99.90;;;;;;5090067;28;20024;-89
2023/12/07 06:46:27;;;;;;;13.37;6.77;;;1.10;99.90;;;;;;5080598;28;20086;-89
2023/12/07 06:48:53;;;;;;;11.20;6.20;;;1.10;99.90;;;;;;5083264;28;20368;-88
2023/12/07 06:51:18;;;;;;;15.87;6.97;;;1.10;99.90;;;;;;5088046;28;20032;-88
2023/12/07 06:53:44;;;;;;;12.93;6.40;;;1.10;99.90;;;;;;5076996;28;20036;-88
2023/12/07 06:56:09;;;;;;;13.70;6.47;;;1.10;99.90;;;;;;5093384;28;20028;-89
2023/12/07 06:58:35;;;;;;;15.27;6.43;;;1.10;99.90;;;;;;5084421;28;20033;-87
2023/12/07 07:01:01;;;;;;;13.03;6.90;;;1.00;99.90;;;;;;5084178;28;20047;-88
2023/12/07 07:03:27;;;;;;;14.27;6.73;;;1.10;99.90;;;;;;5077536;28;20033;-86
2023/12/07 07:05:56;;;;;;;12.07;6.60;;;1.10;99.90;;;;;;5089247;28;20024;-88
2023/12/07 07:08:22;;;;;;;13.23;6.87;;;1.10;99.90;;;;;;5090823;28;20028;-87
2023/12/07 07:10:47;;;;;;;14.20;7.00;;;1.10;99.90;;;;;;5083038;28;20131;-88
2023/12/07 07:13:15;;;;;;;14.37;7.33;;;1.10;99.90;;;;;;5086831;28;20024;-88
2023/12/07 07:15:43;;;;;;;11.97;6.60;;;1.10;99.90;;;;;;5091377;28;20024;-90
2023/12/07 07:18:09;;;;;;;18.27;7.23;;;1.10;99.90;;;;;;5093081;28;20376;-89
2023/12/07 07:20:34;;;;;;;12.70;7.13;;;1.10;99.90;;;;;;5093338;28;20122;-88
2023/12/07 07:23:00;;;;;;;16.33;6.80;;;1.10;99.90;;;;;;5092809;28;20035;-89
2023/12/07 07:25:26;;;;;;;12.97;6.80;;;1.10;99.90;;;;;;5093273;28;20077;-89
2023/12/07 07:27:52;;;;;;;16.30;7.07;;;1.10;99.90;;;;;;5092736;28;20443;-89
2023/12/07 07:30:18;;;;;;;15.40;7.10;;;1.20;99.90;;;;;;5094410;28;20078;-89
2023/12/07 07:32:43;;;;;;;15.63;7.63;;;1.20;99.90;;;;;;5092995;28;20025;-88
2023/12/07 07:35:11;;;;;;;15.13;7.50;;;1.30;99.90;;;;;;5093587;28;20039;-89
2023/12/07 07:37:38;;;;;;;12.60;6.90;;;1.40;99.90;;;;;;5093134;28;20020;-88
2023/12/07 07:40:06;;;;;;;16.87;7.77;;;1.40;99.90;;;;;;5092293;28;20044;-89
2023/12/07 07:42:32;;;;;;;16.97;6.87;;;1.50;99.90;;;;;;5093020;28;20111;-88
2023/12/07 07:44:58;;;;;;;19.20;8.63;;;1.50;99.90;;;;;;5092690;28;20058;-89
2023/12/07 07:47:24;;;;;;;18.40;8.43;;;1.60;99.90;;;;;;5097104;28;20039;-88
2023/12/07 07:49:49;;;;;;;16.07;8.37;;;1.60;99.90;;;;;;5099100;28;20531;-87
2023/12/07 07:52:15;;;;;;;17.07;7.63;;;1.60;99.90;;;;;;5100044;28;20024;-87
2023/12/07 07:54:41;;;;;;;15.97;7.37;;;1.70;99.90;;;;;;5099745;28;20119;-88
2023/12/07 07:57:06;;;;;;;20.80;8.97;;;1.80;99.90;;;;;;5099497;28;20028;-87
2023/12/07 07:59:32;;;;;;;13.90;7.50;;;1.80;99.90;;;;;;5099726;28;20107;-88
2023/12/07 08:01:58;;;;;;;21.90;8.70;;;1.80;99.90;;;;;;5098992;28;20483;-88
2023/12/07 08:04:23;;;;;;;18.77;7.90;;;1.90;99.90;;;;;;5099621;28;20108;-89
2023/12/07 08:06:49;;;;;;;22.20;7.93;;;1.90;99.90;;;;;;5099218;28;20032;-89
2023/12/07 08:09:14;;;;;;;22.33;9.30;;;1.90;99.90;;;;;;5099275;28;20023;-89
2023/12/07 08:11:40;;;;;;;21.63;8.80;;;2.00;99.90;;;;;;5100599;28;20020;-89
2023/12/07 08:14:06;;;;;;;21.50;8.70;;;2.10;99.90;;;;;;5099398;28;20043;-89
2023/12/07 08:16:31;;;;;;;22.57;9.07;;;2.10;99.90;;;;;;5100600;28;20023;-90
2023/12/07 08:18:58;;;;;;;20.23;8.73;;;2.20;99.90;;;;;;5098942;28;20144;-90
2023/12/07 08:21:25;;;;;;;21.93;8.50;;;2.20;99.90;;;;;;5100608;28;20023;-90
2023/12/07 08:23:51;;;;;;;25.63;9.97;;;2.20;99.90;;;;;;5099259;28;20023;-89
2023/12/07 08:26:17;;;;;;;27.27;10.50;;;2.20;99.90;;;;;;5099066;28;20032;-89
2023/12/07 08:28:43;;;;;;;35.93;9.83;;;2.20;99.90;;;;;;5100842;28;20082;-89
2023/12/07 08:31:10;;;;;;;25.30;10.53;;;2.20;99.90;;;;;;5098874;28;20060;-89
2023/12/07 08:33:37;;;;;;;26.87;10.53;;;2.20;99.90;;;;;;5099387;28;20189;-89
2023/12/07 08:36:03;;;;;;;28.83;10.97;;;2.30;99.90;;;;;;5099973;28;20024;-89
2023/12/07 08:38:29;;;;;;;24.00;10.40;;;2.40;99.90;;;;;;5100183;28;20097;-89
2023/12/07 08:40:54;;;;;;;26.43;11.20;;;2.40;99.90;;;;;;5098580;28;20052;-89
2023/12/07 08:43:24;;;;;;;26.97;10.83;;;2.50;99.90;;;;;;5099671;28;20020;-89
2023/12/07 08:45:51;;;;;;;22.03;10.00;;;2.40;99.90;;;;;;5098817;28;20102;-89
2023/12/07 08:48:17;;;;;;;25.13;10.77;;;2.50;99.90;;;;;;5099559;28;20028;-88
2023/12/07 08:50:43;;;;;;;24.07;10.40;;;2.50;99.90;;;;;;5099140;28;20024;-89
2023/12/07 08:53:09;;;;;;;23.20;10.37;;;2.40;99.90;;;;;;5099859;28;20026;-89
2023/12/07 08:55:34;;;;;;;19.47;8.47;;;2.40;99.90;;;;;;5099041;28;20024;-89
2023/12/07 08:58:00;;;;;;;19.60;7.87;;;2.40;99.90;;;;;;5097389;28;20027;-90
2023/12/07 09:00:26;;;;;;;14.97;8.13;;;2.40;99.90;;;;;;5096831;28;20028;-89
2023/12/07 09:02:52;;;;;;;17.50;7.73;;;2.40;99.90;;;;;;5095594;28;20067;-90
2023/12/07 09:05:18;;;;;;;16.33;7.00;;;2.50;99.90;;;;;;5095888;28;20038;-89
2023/12/07 09:07:43;;;;;;;14.03;6.83;;;2.50;99.90;;;;;;5095935;28;20082;-89
2023/12/07 09:10:10;;;;;;;11.40;6.10;;;2.60;99.90;;;;;;5095210;28;20028;-89
2023/12/07 09:12:35;;;;;;;12.47;6.70;;;2.60;99.90;;;;;;5095843;28;20035;-89
2023/12/07 09:15:02;;;;;;;15.10;7.57;;;2.60;99.90;;;;;;5096712;28;20024;-89
2023/12/07 09:17:28;;;;;;;13.20;6.50;;;2.60;99.90;;;;;;5095858;28;20024;-89
2023/12/07 09:19:54;;;;;;;11.30;6.47;;;2.70;99.90;;;;;;5095129;28;20032;-89
2023/12/07 09:22:20;;;;;;;11.97;6.53;;;2.70;99.90;;;;;;5096075;28;20055;-90
2023/12/07 09:24:48;;;;;;;11.43;6.07;;;2.80;99.90;;;;;;5095575;28;20123;-89
2023/12/07 09:27:14;;;;;;;13.30;5.67;;;2.80;99.90;;;;;;5095816;28;20081;-89
2023/12/07 09:29:40;;;;;;;11.93;6.50;;;2.80;99.90;;;;;;5095899;28;20020;-90
2023/12/07 09:32:07;;;;;;;11.60;6.23;;;2.90;99.90;;;;;;5094990;28;20039;-89
2023/12/07 09:34:33;;;;;;;14.30;6.63;;;2.90;99.90;;;;;;5096938;28;20484;-90
2023/12/07 09:37:07;;;;;;;11.23;5.50;;;2.90;99.90;;;;;;5096730;28;20028;-90
2023/12/07 09:39:32;;;;;;;10.33;5.30;;;2.90;99.90;;;;;;5096908;28;20106;-90
2023/12/07 09:41:58;;;;;;;11.67;5.83;;;2.90;99.90;;;;;;5095356;28;20024;-89
2023/12/07 09:44:24;;;;;;;10.70;4.93;;;2.90;99.90;;;;;;5096269;28;20031;-89
2023/12/07 09:46:50;;;;;;;10.40;5.87;;;2.90;99.90;;;;;;5094860;28;20028;-91
2023/12/07 09:49:17;;;;;;;10.37;5.83;;;3.00;99.90;;;;;;5096489;28;20465;-90
2023/12/07 09:51:43;;;;;;;10.83;5.20;;;3.00;99.90;;;;;;5095362;28;20024;-90
2023/12/07 09:54:09;;;;;;;11.43;5.40;;;3.00;99.90;;;;;;5095825;28;20362;-81
2023/12/07 09:56:35;;;;;;;11.17;5.17;;;3.10;99.90;;;;;;5095885;28;20016;-88
2023/12/07 09:59:00;;;;;;;13.60;5.17;;;3.10;99.90;;;;;;5086145;28;20035;-90
2023/12/07 10:01:34;;;;;;;9.00;4.97;;;3.10;99.90;;;;;;5092827;28;20040;-93
2023/12/07 10:04:20;;;;;;;7.60;4.60;;;3.20;99.90;;;;;;5087742;28;20486;-92
2023/12/07 10:06:50;;;;;;;11.07;4.70;;;3.20;99.90;;;;;;5090722;28;20032;-92
2023/12/07 10:09:16;;;;;;;8.80;4.60;;;3.20;99.90;;;;;;5079617;28;20028;-90
2023/12/07 10:11:43;;;;;;;9.03;4.77;;;3.20;99.90;;;;;;5082927;28;20082;-89
2023/12/07 10:14:09;;;;;;;10.33;4.67;;;3.30;99.90;;;;;;5086883;28;20020;-89
2023/12/07 10:16:35;;;;;;;10.70;4.60;;;3.30;99.90;;;;;;5086309;28;20021;-90
2023/12/07 10:19:17;;;;;;;8.97;4.53;;;3.40;99.90;;;;;;5089230;28;20084;-93
2023/12/07 10:21:43;;;;;;;;;;;3.40;99.90;;;;;;5085518;28;20055;-91
2023/12/07 10:24:10;;;;;;;10.93;4.40;;;3.40;99.90;;;;;;5079755;28;19905;-91
2023/12/07 10:26:36;;;;;;;10.77;4.53;;;3.50;99.90;;;;;;5090204;28;20063;-90
2023/12/07 10:29:05;;;;;;;8.53;4.53;;;3.60;99.90;;;;;;5089738;28;20051;-91
2023/12/07 10:31:32;;;;;;;8.93;4.63;;;3.60;99.90;;;;;;5095937;28;20063;-87
2023/12/07 10:33:59;;;;;;;9.03;4.30;;;3.60;99.90;;;;;;5094626;28;20069;-89
2023/12/07 10:36:25;;;;;;;9.53;4.97;;;3.60;99.90;;;;;;5077815;28;20035;-90
2023/12/07 10:38:51;;;;;;;8.90;4.43;;;3.70;99.90;;;;;;5090477;28;20024;-86
2023/12/07 10:41:22;;;;;;;8.43;4.00;;;3.70;99.90;;;;;;5079885;28;20118;-90
2023/12/07 10:43:59;;;;;;;6.43;4.03;;;3.80;99.90;;;;;;5082820;28;20025;-91
2023/12/07 10:46:26;;;;;;;9.50;3.80;;;3.80;99.90;;;;;;5074884;28;20029;-89
2023/12/07 10:48:59;;;;;;;6.93;4.10;;;3.90;99.90;;;;;;5090285;28;20055;-89
2023/12/07 10:51:54;;;;;;;7.40;4.40;;;3.90;99.90;;;;;;5080896;28;20024;-84
2023/12/07 10:54:26;;;;;;;6.83;4.00;;;4.00;99.90;;;;;;5089296;28;20039;-85
2023/12/07 10:56:53;;;;;;;8.00;3.80;;;4.00;99.90;;;;;;5076363;28;20020;-89
2023/12/07 10:59:20;;;;;;;7.33;4.27;;;4.10;99.90;;;;;;5094386;28;20024;-89
2023/12/07 11:01:47;;;;;;;9.83;4.20;;;4.10;99.90;;;;;;5092879;28;20036;-91
2023/12/07 11:04:14;;;;;;;8.23;3.60;;;4.10;99.90;;;;;;5092337;28;20111;-90
2023/12/07 11:06:47;;;;;;;7.97;4.27;;;4.20;99.90;;;;;;5076340;28;20029;-89
2023/12/07 11:09:23;;;;;;;11.93;4.50;;;4.20;99.90;;;;;;5086742;28;20103;-86
2023/12/07 11:11:51;;;;;;;7.20;4.07;;;4.20;99.90;;;;;;5083582;28;20024;-85
2023/12/07 11:14:17;;;;;;;10.33;4.07;;;4.20;99.90;;;;;;5078295;28;20028;-89
2023/12/07 11:16:45;;;;;;;8.30;3.63;;;4.30;99.90;;;;;;5089707;28;20077;-89
2023/12/07 11:19:29;;;;;;;8.03;3.83;;;4.40;99.90;;;;;;5078886;28;20024;-89
2023/12/07 11:21:56;;;;;;;10.87;4.43;;;4.50;99.90;;;;;;5080145;28;20119;-88
2023/12/07 11:24:23;;;;;;;6.97;3.90;;;4.50;99.90;;;;;;5088539;28;20027;-88
2023/12/07 11:26:52;;;;;;;7.03;3.67;;;4.60;99.90;;;;;;5077680;28;20480;-88
2023/12/07 11:29:20;;;;;;;5.87;3.33;;;4.60;99.90;;;;;;5093774;28;20046;-88
2023/12/07 11:31:46;;;;;;;5.53;3.43;;;4.70;99.90;;;;;;5092536;28;20032;-83
2023/12/07 11:34:15;;;;;;;6.40;3.77;;;4.80;99.90;;;;;;5078208;28;20036;-85
2023/12/07 11:36:40;;;;;;;8.03;3.67;;;4.80;99.90;;;;;;5090072;28;20087;-86
2023/12/07 11:39:11;;;;;;;7.43;3.47;;;4.90;99.90;;;;;;5076648;28;20052;-87
2023/12/07 11:41:53;;;;;;;7.00;3.63;;;4.90;99.90;;;;;;5090169;28;20028;-86
2023/12/07 11:44:18;;;;;;;8.00;3.85;;;5.00;99.90;;;;;;5093559;28;20024;-86
2023/12/07 11:46:44;;;;;;;7.30;3.60;;;5.10;99.90;;;;;;5075899;28;20086;-88
2023/12/07 11:49:11;;;;;;;6.47;3.03;;;5.10;99.90;;;;;;5087947;28;20265;-87
2023/12/07 11:51:37;;;;;;;5.60;3.70;;;5.30;99.90;;;;;;5081356;28;20032;-86
2023/12/07 11:54:03;;;;;;;5.63;3.60;;;5.40;99.90;;;;;;5088171;28;20057;-85
2023/12/07 11:56:28;;;;;;;7.07;3.87;;;5.50;99.90;;;;;;5076108;28;20129;-90
2023/12/07 11:58:55;;;;;;;6.43;3.70;;;5.60;99.90;;;;;;5102522;28;20024;-92
2023/12/07 12:01:24;;;;;;;6.93;3.43;;;5.80;99.90;;;;;;5086926;28;20020;-89
2023/12/07 12:03:49;;;;;;;8.10;3.83;;;6.00;99.90;;;;;;5083442;28;20123;-91
2023/12/07 12:06:15;;;;;;;6.67;3.77;;;6.20;99.90;;;;;;5077353;28;20123;-90
2023/12/07 12:08:44;;;;;;;9.43;3.53;;;6.40;99.90;;;;;;5089046;28;20441;-90
2023/12/07 12:11:09;;;;;;;6.87;3.17;;;6.60;99.90;;;;;;5077709;28;20414;-90
2023/12/07 12:13:36;;;;;;;8.80;3.53;;;6.50;99.90;;;;;;5084056;28;20025;-92
2023/12/07 12:16:02;;;;;;;6.40;3.20;;;6.40;99.90;;;;;;5085801;28;20035;-90
2023/12/07 12:18:28;;;;;;;6.30;3.43;;;6.40;99.90;;;;;;5093445;28;20035;-93
2023/12/07 12:20:54;;;;;;;11.63;5.10;;;6.50;99.90;;;;;;5076356;28;20020;-87
2023/12/07 12:23:20;;;;;;;14.13;6.70;;;6.60;99.90;;;;;;5083598;28;20023;-89
2023/12/07 12:25:46;;;;;;;14.33;7.57;;;6.60;99.90;;;;;;5083432;28;20028;-89
2023/12/07 12:28:16;;;;;;;12.40;6.90;;;6.60;99.90;;;;;;5086518;28;20024;-89
2023/12/07 12:30:42;;;;;;;17.53;7.07;;;6.60;99.90;;;;;;5092091;28;20050;-89
2023/12/07 12:33:08;;;;;;;11.87;5.83;;;6.50;99.90;;;;;;5086901;28;20032;-94
2023/12/07 12:35:34;;;;;;;13.20;5.87;;;6.60;99.90;;;;;;5085039;28;20030;-92
2023/12/07 12:37:59;;;;;;;7.43;4.30;;;6.60;99.90;;;;;;5091856;28;20044;-91
2023/12/07 12:40:29;;;;;;;6.87;4.00;;;6.70;99.90;;;;;;5114269;28;20052;-92
2023/12/07 12:42:57;;;;;;;7.70;3.30;;;6.80;99.90;;;;;;5095700;28;20023;-91
2023/12/07 12:45:23;;;;;;;9.67;3.63;;;6.80;99.90;;;;;;5103571;28;20024;-90
2023/12/07 12:47:51;;;;;;;7.07;3.00;;;6.90;99.90;;;;;;5105793;28;20047;-91